Capitol Logistics 2195

Operating for AJT



KDEN
Denver International Airport
Denver, Colorado
KCVG
Cincinnati/Northern Kentucky International Airport
Covington, Kentucky

Activity Log

Date Flight Route Aircraft Duration
02/27/2022 CPX2195 EMMYS7 ZIRKL MCK MCI J24 STL ENL SARGO3 B752 2h 18m

Route Details

Aircraft Information
Group: Boeing Common
Types: B752,B762,B763
Route Data
Demand: L
Distance: 928nm
Duration: 2h 06m
Recm'd Route: EMMYS7 ZIRKL MCK MCI J24 STL ENL SARGO3
Origin Wx: KDEN 270653Z 16007KT 10SM FEW220 13/03 A3008 RMK AO2 SLP117 T01280028 402780044
Dest. Wx: KCVG 270652Z 19004KT 10SM FEW060 15/15 A2980 RMK AO2 SLP085 T01500150 $
Notes:

Financial History
Total Freight: 25,179lbs
Average Load: 25,179lbs/flt
Fuel Used: 13,870lbs
Avg. Fuel Used: 13,870lbs/flt
Fuel Expense: $4,855
Avg. Fuel Expense: $4,855
Avg. Fuel Cost: $0.35/lbs
Total Gross Income: $57,156
Pilot Pay: $239
Total Expenses: $11,112
Total Revenue: $40,666
Average Revenue: $57,156.33